createdAt,value
2017-02-06T06:14:03.097Z,0
2017-02-06T06:15:12.989Z,0
2017-02-06T06:16:22.910Z,0
2017-02-06T06:17:33.185Z,0
2017-02-06T06:18:43.138Z,0
2017-02-06T06:19:53.305Z,0
2017-02-06T06:21:03.158Z,0
2017-02-06T06:22:13.539Z,0
2017-02-06T06:23:23.861Z,0
2017-02-06T06:24:34.143Z,0
2017-02-06T06:25:43.832Z,0
2017-02-06T06:26:54.073Z,0
2017-02-06T06:28:04.310Z,0
2017-02-06T06:29:14.892Z,0
2017-02-06T06:30:25.272Z,0
2017-02-06T06:31:35.858Z,0
2017-02-06T06:32:46.134Z,0
2017-02-06T06:33:56.390Z,0
2017-02-06T06:35:06.749Z,0
2017-02-06T06:36:16.589Z,0
2017-02-06T06:37:27.130Z,0
2017-02-06T06:38:37.363Z,0
2017-02-06T06:39:47.603Z,0
2017-02-06T06:40:57.904Z,0
2017-02-06T06:42:07.740Z,0
2017-02-06T06:43:18.282Z,0
2017-02-06T06:44:28.167Z,0
2017-02-06T06:45:38.701Z,0
2017-02-06T06:46:48.999Z,0
2017-02-06T06:47:59.289Z,0
2017-02-06T06:49:09.434Z,0
2017-02-06T06:50:19.290Z,0
2017-02-06T06:51:29.169Z,0
2017-02-06T06:52:39.076Z,0
2017-02-06T06:53:48.963Z,0
2017-02-06T06:54:59.519Z,5
2017-02-06T06:56:09.359Z,5
2017-02-06T06:57:19.225Z,5
2017-02-06T06:58:29.142Z,5
2017-02-06T06:59:39.464Z,5
2017-02-06T07:00:50.000Z,5
2017-02-06T07:01:59.827Z,5
2017-02-06T07:03:10.081Z,5
2017-02-06T07:04:19.982Z,5
2017-02-06T07:05:29.834Z,5
2017-02-06T07:06:39.959Z,5
2017-02-06T07:07:49.395Z,5
2017-02-06T07:08:58.829Z,5
2017-02-06T07:10:09.159Z,10
2017-02-06T07:11:18.601Z,10
2017-02-06T07:12:28.806Z,10
2017-02-06T07:13:39.080Z,10
2017-02-06T07:14:49.597Z,10
2017-02-06T07:15:59.888Z,10
2017-02-06T07:17:09.772Z,10
2017-02-06T07:18:19.479Z,10
2017-02-06T07:19:29.814Z,10
2017-02-06T07:20:40.135Z,15
2017-02-06T07:21:50.458Z,15
2017-02-06T07:23:00.718Z,15
2017-02-06T07:24:11.210Z,10
2017-02-06T07:25:21.514Z,15
2017-02-06T07:26:31.392Z,15
2017-02-06T07:27:41.666Z,15
2017-02-06T07:28:51.506Z,15
2017-02-06T07:30:02.004Z,15
2017-02-06T07:31:11.485Z,15
2017-02-06T07:32:21.364Z,15
2017-02-06T07:33:31.602Z,15
2017-02-06T07:34:41.841Z,15
2017-02-06T07:35:51.991Z,15
2017-02-06T07:37:02.277Z,15
2017-02-06T07:38:12.121Z,15
2017-02-06T07:39:22.359Z,15
2017-02-06T07:40:32.246Z,15
2017-02-06T07:41:42.745Z,15
2017-02-06T07:42:52.990Z,15
2017-02-06T07:44:02.823Z,15
2017-02-06T07:45:13.120Z,15
2017-02-06T07:46:22.963Z,15
2017-02-06T07:47:32.691Z,15
2017-02-06T07:48:42.139Z,15
2017-02-06T07:49:52.102Z,15
2017-02-06T07:51:01.931Z,15
2017-02-06T07:52:11.772Z,20
2017-02-06T07:53:21.471Z,20
2017-02-06T07:54:31.387Z,20
2017-02-06T07:55:41.216Z,20
2017-02-06T07:56:51.134Z,20
2017-02-06T07:58:01.488Z,25
2017-02-06T07:59:12.034Z,25
2017-02-06T08:00:21.988Z,25
2017-02-06T08:01:31.849Z,25
2017-02-06T08:02:42.098Z,30
2017-02-06T08:03:52.355Z,30
2017-02-06T08:05:03.023Z,25
2017-02-06T08:06:12.853Z,25
2017-02-06T08:07:23.137Z,30
2017-02-06T08:08:32.591Z,30
2017-02-06T08:09:42.421Z,30
2017-02-06T08:10:52.515Z,40
2017-02-06T08:12:02.772Z,35
2017-02-06T08:13:13.050Z,35
2017-02-06T08:14:22.973Z,45
2017-02-06T08:15:33.314Z,40
2017-02-06T08:16:43.072Z,40
2017-02-06T08:17:53.336Z,50
2017-02-06T08:19:03.187Z,55
2017-02-06T08:20:13.447Z,55
2017-02-06T08:21:23.697Z,65
2017-02-06T08:22:33.432Z,60
2017-02-06T08:23:43.810Z,70
2017-02-06T08:24:54.098Z,65
2017-02-06T08:26:04.374Z,65
2017-02-06T08:27:14.649Z,60
2017-02-06T08:28:25.206Z,60
2017-02-06T08:29:35.479Z,70
2017-02-06T08:30:45.326Z,65
2017-02-06T08:31:55.626Z,70
2017-02-06T08:33:05.498Z,70
2017-02-06T08:34:15.625Z,65
2017-02-06T08:35:25.960Z,70
2017-02-06T08:36:35.814Z,65
2017-02-06T08:37:45.642Z,60
2017-02-06T08:38:55.878Z,65
2017-02-06T08:40:06.424Z,60
2017-02-06T08:41:15.853Z,60
2017-02-06T08:42:25.711Z,70
2017-02-06T08:43:35.616Z,70
2017-02-06T08:44:45.522Z,70
2017-02-06T08:45:56.051Z,80
2017-02-06T08:47:05.891Z,85
2017-02-06T08:48:15.362Z,90
2017-02-06T08:49:25.607Z,100
2017-02-06T08:50:35.683Z,100
2017-02-06T08:51:46.519Z,100
2017-02-06T08:52:55.962Z,90
2017-02-06T08:54:06.199Z,80
2017-02-06T08:55:16.451Z,70
2017-02-06T08:56:26.325Z,65
2017-02-06T08:57:36.486Z,60
2017-02-06T08:58:46.771Z,65
2017-02-06T08:59:57.029Z,65
2017-02-06T09:01:07.286Z,70
2017-02-06T09:02:17.570Z,65
2017-02-06T09:03:27.727Z,65
2017-02-06T09:04:37.193Z,60
2017-02-06T09:05:47.043Z,70
2017-02-06T09:06:56.948Z,70
2017-02-06T09:08:06.796Z,65
2017-02-06T09:09:16.991Z,65
2017-02-06T09:10:27.076Z,70
2017-02-06T09:11:37.314Z,70
2017-02-06T09:12:47.664Z,70
2017-02-06T09:13:57.512Z,70
2017-02-06T09:15:08.083Z,75
2017-02-06T09:16:18.349Z,80
2017-02-06T09:17:28.209Z,85
2017-02-06T09:18:37.671Z,85
2017-02-06T09:19:48.179Z,80
2017-02-06T09:20:58.779Z,85
2017-02-06T09:22:09.051Z,95
2017-02-06T09:23:19.410Z,105
2017-02-06T09:24:28.596Z,110
2017-02-06T09:25:38.466Z,90
2017-02-06T09:26:48.983Z,85
2017-02-06T09:27:58.066Z,90
2017-02-06T09:29:07.530Z,90
2017-02-06T09:30:17.797Z,110
2017-02-06T09:31:28.106Z,100
2017-02-06T09:32:38.772Z,95
2017-02-06T09:33:48.660Z,110
2017-02-06T09:34:58.509Z,105
2017-02-06T09:36:08.805Z,95
2017-02-06T09:37:19.284Z,95
2017-02-06T09:38:29.826Z,100
2017-02-06T09:39:43.339Z,110
2017-02-06T09:40:53.605Z,110
2017-02-06T09:42:03.872Z,120
2017-02-06T09:43:13.443Z,120
2017-02-06T09:44:23.195Z,115
2017-02-06T09:45:33.488Z,130
2017-02-06T09:46:43.321Z,125
2017-02-06T09:47:53.599Z,125
2017-02-06T09:49:03.953Z,120
2017-02-06T09:50:14.512Z,110
2017-02-06T09:51:24.849Z,115
2017-02-06T09:52:34.709Z,120
2017-02-06T09:53:44.542Z,140
2017-02-06T09:54:54.386Z,145
2017-02-06T09:56:04.600Z,125
2017-02-06T09:57:14.476Z,120
2017-02-06T09:58:24.806Z,140
2017-02-06T09:59:35.055Z,110
2017-02-06T10:00:45.337Z,125
2017-02-06T10:01:55.506Z,120
2017-02-06T10:03:05.751Z,105
2017-02-06T10:04:15.614Z,125
2017-02-06T10:05:25.843Z,125
2017-02-06T10:06:35.767Z,100
2017-02-06T10:07:46.293Z,95
2017-02-06T10:08:56.608Z,90
2017-02-06T10:10:06.865Z,85
2017-02-06T10:11:16.703Z,75
2017-02-06T10:12:26.550Z,70
2017-02-06T10:13:36.690Z,80
2017-02-06T10:14:46.153Z,105
2017-02-06T10:15:56.021Z,125
2017-02-06T10:17:06.414Z,105
2017-02-06T10:18:16.369Z,145
2017-02-06T10:19:26.501Z,175
2017-02-06T10:20:36.524Z,175
2017-02-06T10:21:49.919Z,200
2017-02-06T10:23:00.277Z,180
2017-02-06T10:24:10.510Z,165
2017-02-06T10:25:20.661Z,140
2017-02-06T10:26:30.545Z,150
2017-02-06T10:27:40.880Z,150
2017-02-06T10:28:51.140Z,125
2017-02-06T10:30:01.145Z,100
2017-02-06T10:31:10.863Z,85
2017-02-06T10:32:20.713Z,85
2017-02-06T10:33:30.995Z,75
2017-02-06T10:34:41.397Z,80
2017-02-06T10:35:51.677Z,75
2017-02-06T10:37:02.249Z,80
2017-02-06T10:38:12.085Z,85
2017-02-06T10:39:21.936Z,90
2017-02-06T10:40:32.273Z,90
2017-02-06T10:41:41.729Z,85
2017-02-06T10:42:52.381Z,90
2017-02-06T10:44:02.639Z,85
2017-02-06T10:45:12.100Z,90
2017-02-06T10:46:22.372Z,85
2017-02-06T10:47:32.240Z,85
2017-02-06T10:48:42.397Z,75
2017-02-06T10:49:52.721Z,70
2017-02-06T10:51:02.177Z,70
2017-02-06T10:52:12.421Z,70
2017-02-06T10:53:21.908Z,75
2017-02-06T10:54:31.770Z,85
2017-02-06T10:55:42.025Z,90
2017-02-06T10:56:52.337Z,95
2017-02-06T10:58:02.608Z,100
2017-02-06T10:59:12.459Z,105
2017-02-06T11:00:22.917Z,110
2017-02-06T11:01:33.212Z,105
2017-02-06T11:02:43.496Z,115
2017-02-06T11:03:53.371Z,125
2017-02-06T11:05:03.724Z,140
2017-02-06T11:06:14.322Z,145
2017-02-06T11:07:24.635Z,145
2017-02-06T11:08:34.918Z,145
2017-02-06T11:09:44.787Z,145
2017-02-06T11:10:54.710Z,140
2017-02-06T11:12:04.865Z,130
2017-02-06T11:13:15.135Z,130
2017-02-06T11:14:25.441Z,135
2017-02-06T11:15:35.332Z,135
2017-02-06T11:16:45.604Z,125
2017-02-06T11:17:56.151Z,120
2017-02-06T11:19:06.475Z,105
2017-02-06T11:20:16.756Z,105
2017-02-06T11:21:26.677Z,100
2017-02-06T11:22:36.586Z,105
2017-02-06T11:23:47.162Z,100
2017-02-06T11:24:57.429Z,95
2017-02-06T11:26:07.715Z,95
2017-02-06T11:27:17.986Z,105
2017-02-06T11:28:27.868Z,115
2017-02-06T11:29:37.622Z,110
2017-02-06T11:30:47.508Z,110
2017-02-06T11:31:57.896Z,110
2017-02-06T11:33:08.194Z,115
2017-02-06T11:34:18.475Z,110
2017-02-06T11:35:28.675Z,125
2017-02-06T11:36:38.139Z,120
2017-02-06T11:37:48.405Z,120
2017-02-06T11:38:58.716Z,130
2017-02-06T11:40:08.607Z,125
2017-02-06T11:41:19.114Z,125
2017-02-06T11:42:29.425Z,125
2017-02-06T11:43:39.720Z,110
2017-02-06T11:44:50.075Z,110
2017-02-06T11:45:59.938Z,105
2017-02-06T11:47:10.210Z,100
2017-02-06T11:48:20.050Z,90
2017-02-06T11:49:29.920Z,85
2017-02-06T11:50:40.193Z,90
2017-02-06T11:51:50.456Z,105
2017-02-06T11:53:01.067Z,115
2017-02-06T11:54:10.934Z,120
2017-02-06T11:55:21.212Z,105
2017-02-06T11:56:31.467Z,100
2017-02-06T11:57:41.961Z,105
2017-02-06T11:58:52.533Z,105
2017-02-06T12:00:02.796Z,120
2017-02-06T12:01:13.046Z,130
2017-02-06T12:02:22.952Z,130
2017-02-06T12:03:32.813Z,125
2017-02-06T12:04:43.455Z,120
2017-02-06T12:05:53.347Z,125
2017-02-06T12:07:03.725Z,125
2017-02-06T12:08:14.025Z,125
2017-02-06T12:09:23.474Z,115
2017-02-06T12:10:34.160Z,115
2017-02-06T12:11:44.451Z,125
2017-02-06T12:12:54.729Z,120
2017-02-06T12:14:05.015Z,120
2017-02-06T12:15:14.855Z,120
2017-02-06T12:16:25.403Z,130
2017-02-06T12:17:35.706Z,115
2017-02-06T12:18:45.624Z,105
2017-02-06T12:19:55.904Z,110
2017-02-06T12:21:06.206Z,100
2017-02-06T12:22:16.871Z,100
2017-02-06T12:23:27.153Z,100
2017-02-06T12:24:37.028Z,130
2017-02-06T12:25:47.025Z,130
2017-02-06T12:26:57.288Z,135
2017-02-06T12:28:07.896Z,135
2017-02-06T12:29:17.750Z,140
2017-02-06T12:30:27.620Z,130
2017-02-06T12:31:37.901Z,125
2017-02-06T12:32:48.231Z,130
2017-02-06T12:33:58.830Z,135
2017-02-06T12:35:09.151Z,140
2017-02-06T12:36:19.048Z,130
2017-02-06T12:37:29.363Z,120
2017-02-06T12:38:39.634Z,130
2017-02-06T12:39:50.209Z,125
2017-02-06T12:41:00.475Z,125
2017-02-06T12:42:10.882Z,130
2017-02-06T12:43:20.729Z,145
2017-02-06T12:44:29.799Z,150
2017-02-06T12:45:40.292Z,155
2017-02-06T12:46:50.667Z,160
2017-02-06T12:48:00.960Z,170
2017-02-06T12:49:11.027Z,175
2017-02-06T12:50:21.372Z,180
2017-02-06T12:51:32.149Z,175
2017-02-06T12:52:42.018Z,160
2017-02-06T12:53:52.322Z,115
2017-02-06T12:55:02.246Z,125
2017-02-06T12:56:12.546Z,130
2017-02-06T12:57:23.183Z,105
2017-02-06T12:58:32.651Z,85
2017-02-06T12:59:42.531Z,80
2017-02-06T13:00:52.411Z,75
2017-02-06T13:02:02.702Z,80
2017-02-06T13:03:12.863Z,75
2017-02-06T13:04:23.220Z,75
2017-02-06T13:05:33.509Z,70
2017-02-06T13:06:43.771Z,70
2017-02-06T13:07:54.119Z,70
2017-02-06T13:09:04.752Z,75
2017-02-06T13:10:15.149Z,80
2017-02-06T13:11:25.053Z,75
2017-02-06T13:12:34.987Z,75
2017-02-06T13:13:45.293Z,75
2017-02-06T13:14:55.965Z,85
2017-02-06T13:16:06.232Z,80
2017-02-06T13:17:16.531Z,75
2017-02-06T13:18:26.397Z,75
2017-02-06T13:19:36.857Z,75
2017-02-06T13:20:47.506Z,70
2017-02-06T13:21:57.778Z,70
2017-02-06T13:23:08.145Z,70
2017-02-06T13:24:18.040Z,70
2017-02-06T13:25:28.341Z,65
2017-02-06T13:26:38.505Z,60
2017-02-06T13:27:48.387Z,60
2017-02-06T13:28:58.675Z,60
2017-02-06T13:30:08.948Z,60
2017-02-06T13:31:18.942Z,60
2017-02-06T13:32:28.724Z,55
2017-02-06T13:33:39.051Z,55
2017-02-06T13:34:49.301Z,60
2017-02-06T13:35:58.804Z,55
2017-02-06T13:37:08.735Z,60
2017-02-06T13:38:19.264Z,55
2017-02-06T13:39:29.606Z,55
2017-02-06T13:40:39.871Z,65
2017-02-06T13:41:49.813Z,60
2017-02-06T13:43:00.138Z,60
2017-02-06T13:44:10.333Z,60
2017-02-06T13:45:20.612Z,55
2017-02-06T13:46:30.500Z,55
2017-02-06T13:47:40.406Z,55
2017-02-06T13:48:50.756Z,55
2017-02-06T13:50:01.371Z,55
2017-02-06T13:51:11.655Z,55
2017-02-06T13:52:21.918Z,55
2017-02-06T13:53:31.821Z,60
2017-02-06T13:54:42.087Z,60
2017-02-06T13:55:52.688Z,60
2017-02-06T13:57:02.533Z,60
2017-02-06T13:58:12.452Z,60
2017-02-06T13:59:22.711Z,55
2017-02-06T14:00:32.967Z,55
2017-02-06T14:01:43.569Z,55
2017-02-06T14:02:53.836Z,50
2017-02-06T14:04:04.163Z,50
2017-02-06T14:05:14.044Z,50
2017-02-06T14:06:23.960Z,45
2017-02-06T14:07:34.503Z,50
2017-02-06T14:08:44.419Z,50
2017-02-06T14:09:54.338Z,45
2017-02-06T14:11:04.203Z,45
2017-02-06T14:12:14.558Z,45
2017-02-06T14:13:25.305Z,45
2017-02-06T14:14:35.583Z,45
2017-02-06T14:15:45.466Z,40
2017-02-06T14:16:55.363Z,40
2017-02-06T14:18:05.668Z,40
2017-02-06T14:19:16.216Z,45
2017-02-06T14:20:26.652Z,45
2017-02-06T14:21:36.527Z,45
2017-02-06T14:22:47.042Z,40
2017-02-06T14:23:57.310Z,40
2017-02-06T14:25:07.447Z,35
2017-02-06T14:26:17.483Z,35
2017-02-06T14:27:27.571Z,40
2017-02-06T14:28:37.810Z,40
2017-02-06T14:29:48.156Z,40
2017-02-06T14:30:58.735Z,40
2017-02-06T14:32:09.046Z,40
2017-02-06T14:33:19.428Z,40
2017-02-06T14:34:29.283Z,35
2017-02-06T14:35:38.741Z,35
2017-02-06T14:36:49.300Z,35
2017-02-06T14:37:59.310Z,30
2017-02-06T14:39:09.622Z,30
2017-02-06T14:40:19.914Z,30
2017-02-06T14:41:30.202Z,30
2017-02-06T14:42:40.798Z,30
2017-02-06T14:43:51.334Z,30
2017-02-06T14:45:01.327Z,35
2017-02-06T14:46:11.709Z,35
2017-02-06T14:47:21.627Z,35
2017-02-06T14:48:32.185Z,30
2017-02-06T14:49:42.571Z,35
2017-02-06T14:50:52.859Z,35
2017-02-06T14:52:03.143Z,35
2017-02-06T14:53:13.025Z,30
2017-02-06T14:54:23.200Z,30
2017-02-06T14:55:33.465Z,35
2017-02-06T14:56:43.338Z,35
2017-02-06T14:57:52.784Z,35
2017-02-06T14:59:02.189Z,35
2017-02-06T15:00:12.320Z,35
2017-02-06T15:01:22.615Z,35
2017-02-06T15:02:32.513Z,30
2017-02-06T15:03:42.890Z,35
2017-02-06T15:04:53.210Z,30
2017-02-06T15:06:03.742Z,35
2017-02-06T15:07:13.722Z,35
2017-02-06T15:08:24.040Z,35
2017-02-06T15:09:34.317Z,35
2017-02-06T15:10:44.919Z,30
2017-02-06T15:11:55.481Z,25
2017-02-06T15:13:05.762Z,30
2017-02-06T15:14:16.092Z,30
2017-02-06T15:15:25.976Z,25
2017-02-06T15:16:36.312Z,25
2017-02-06T15:17:47.015Z,25
2017-02-06T15:18:57.315Z,20
2017-02-06T15:20:06.465Z,20
2017-02-06T15:21:16.771Z,20
2017-02-06T15:22:27.055Z,20
2017-02-06T15:23:37.608Z,20
2017-02-06T15:24:47.906Z,20
2017-02-06T15:25:57.823Z,15
2017-02-06T15:27:08.101Z,15
2017-02-06T15:28:17.988Z,15
2017-02-06T15:29:28.521Z,15
2017-02-06T15:30:38.402Z,15
2017-02-06T15:31:48.296Z,10
2017-02-06T15:32:58.663Z,10
2017-02-06T15:34:08.540Z,10
2017-02-06T15:35:19.073Z,10
2017-02-06T15:36:28.921Z,10
2017-02-06T15:37:39.199Z,10
2017-02-06T15:38:49.074Z,10
2017-02-06T15:39:58.944Z,10
2017-02-06T15:41:09.168Z,10
2017-02-06T15:42:19.618Z,10
2017-02-06T15:43:29.496Z,10
2017-02-06T15:44:40.015Z,10
2017-02-06T15:45:50.277Z,10
2017-02-06T15:47:00.462Z,10
2017-02-06T15:48:10.919Z,10
2017-02-06T15:49:21.200Z,10
2017-02-06T15:50:31.464Z,10
2017-02-06T15:51:41.884Z,10
2017-02-06T15:52:52.500Z,5
2017-02-06T15:54:03.020Z,5
2017-02-06T15:55:13.262Z,5
2017-02-06T15:56:23.207Z,5
2017-02-06T15:57:33.455Z,5
2017-02-06T15:58:44.011Z,5
2017-02-06T15:59:53.881Z,5
2017-02-06T16:01:03.732Z,5
2017-02-06T16:02:12.782Z,5
2017-02-06T16:03:23.131Z,5
2017-02-06T16:04:33.457Z,5
2017-02-06T16:05:43.772Z,5
2017-02-06T16:06:54.097Z,0
2017-02-06T16:08:04.460Z,0
2017-02-06T16:09:14.292Z,0
2017-02-06T16:10:24.414Z,0
2017-02-06T16:11:34.409Z,0
2017-02-06T16:12:44.936Z,0
2017-02-06T16:13:55.254Z,0
2017-02-06T16:15:05.676Z,0
2017-02-06T16:16:16.177Z,0
2017-02-06T16:17:26.470Z,0
2017-02-06T16:18:36.859Z,0
2017-02-06T16:19:46.743Z,0
2017-02-06T16:20:57.107Z,0
2017-02-06T16:22:07.659Z,0
2017-02-06T16:23:17.961Z,0
2017-02-06T16:24:27.835Z,0
2017-02-06T16:25:38.115Z,0
2017-02-06T16:26:48.022Z,0
2017-02-06T16:27:58.576Z,0
2017-02-06T16:29:08.828Z,0
2017-02-06T16:30:19.086Z,0
2017-02-06T16:31:29.132Z,0
2017-02-06T16:32:39.430Z,0
2017-02-06T16:33:49.987Z,0
2017-02-06T16:35:00.249Z,0
2017-02-06T16:36:10.116Z,0
2017-02-06T16:37:20.434Z,0
2017-02-06T16:38:30.353Z,0
2017-02-06T16:39:40.372Z,0
2017-02-06T16:40:50.280Z,0
2017-02-06T16:42:00.591Z,0
2017-02-06T16:43:10.523Z,0
2017-02-06T16:44:20.874Z,0
2017-02-06T16:45:31.491Z,0
2017-02-06T16:46:41.786Z,0
2017-02-06T16:47:51.740Z,0
2017-02-06T16:49:02.115Z,0
2017-02-06T16:50:12.423Z,0
2017-02-06T16:51:22.550Z,0
2017-02-06T16:52:32.865Z,0
2017-02-06T16:53:42.762Z,0
2017-02-06T16:54:52.774Z,0
2017-02-06T16:56:03.046Z,0
2017-02-06T16:57:13.687Z,0
2017-02-06T16:58:23.632Z,0
2017-02-06T16:59:33.552Z,0
2017-02-06T17:00:43.813Z,0
2017-02-06T17:01:53.689Z,0
2017-02-06T17:03:04.254Z,0
2017-02-06T17:04:14.532Z,0
2017-02-06T17:05:24.807Z,0
2017-02-06T17:06:35.116Z,0
2017-02-06T17:07:44.999Z,0
2017-02-06T17:08:55.521Z,0
2017-02-06T17:10:05.789Z,0
2017-02-06T17:11:16.133Z,0
2017-02-06T17:12:26.396Z,0
2017-02-06T17:13:36.686Z,0
2017-02-06T17:14:47.252Z,0
2017-02-06T17:15:57.663Z,0
2017-02-06T17:17:07.554Z,0
2017-02-06T17:18:17.441Z,0
2017-02-06T17:19:27.713Z,0
2017-02-06T17:20:38.342Z,0
2017-02-06T17:21:48.629Z,0
2017-02-06T17:22:58.523Z,0
2017-02-06T17:24:08.472Z,0
2017-02-06T17:25:18.372Z,0
2017-02-06T17:26:28.929Z,0
2017-02-06T17:27:39.223Z,0
2017-02-06T17:28:48.705Z,0
2017-02-06T17:29:58.644Z,0
2017-02-06T17:31:08.929Z,0
2017-02-06T17:32:19.573Z,0
2017-02-06T17:33:29.490Z,0
2017-02-06T17:34:39.840Z,0
2017-02-06T17:35:49.757Z,0
2017-02-06T17:36:59.679Z,0
2017-02-06T17:38:09.868Z,0
2017-02-06T17:39:19.899Z,0
2017-02-06T17:40:29.866Z,0
2017-02-06T17:41:39.730Z,0
2017-02-06T17:42:49.620Z,0
2017-02-06T17:44:00.196Z,0
2017-02-06T17:45:10.503Z,0
2017-02-06T17:46:20.781Z,0
2017-02-06T17:47:31.072Z,0
2017-02-06T17:48:41.536Z,0
2017-02-06T17:49:51.746Z,0
2017-02-06T17:51:02.048Z,0
2017-02-06T17:52:12.442Z,0
2017-02-06T17:53:22.741Z,0
2017-02-06T17:54:32.671Z,0
2017-02-06T17:55:43.209Z,0
2017-02-06T17:56:53.587Z,0
2017-02-06T17:58:03.115Z,0
2017-02-06T17:59:13.421Z,0
2017-02-06T18:00:23.979Z,0
2017-02-06T18:01:34.593Z,0
2017-02-06T18:02:44.498Z,0
2017-02-06T18:03:54.862Z,0
2017-02-06T18:05:04.821Z,0
2017-02-06T18:06:15.128Z,0
2017-02-06T18:07:25.654Z,0
2017-02-06T18:08:36.000Z,0
2017-02-06T18:09:46.480Z,0
2017-02-06T18:10:56.771Z,0
2017-02-06T18:12:07.333Z,0
2017-02-06T18:13:17.857Z,0
2017-02-06T18:14:28.154Z,0
2017-02-06T18:15:38.461Z,0
2017-02-06T18:16:48.879Z,0
2017-02-06T18:17:59.187Z,0
2017-02-06T18:19:08.884Z,0
2017-02-06T18:20:18.787Z,0
2017-02-06T18:21:29.076Z,0
2017-02-06T18:22:39.049Z,0
2017-02-06T18:23:49.331Z,0
2017-02-06T18:24:59.905Z,0
2017-02-06T18:26:10.200Z,0
2017-02-06T18:27:20.693Z,0
2017-02-06T18:28:30.555Z,0
2017-02-06T18:29:40.411Z,0
2017-02-06T18:30:50.143Z,0
2017-02-06T18:32:03.893Z,0
2017-02-06T18:33:18.779Z,0
2017-02-06T18:34:34.250Z,0
2017-02-06T18:35:48.211Z,0
2017-02-06T18:37:02.355Z,0
2017-02-06T18:38:18.314Z,0
2017-02-06T18:39:33.409Z,0
2017-02-06T18:40:46.199Z,0
2017-02-06T18:41:59.546Z,0
2017-02-06T18:43:13.378Z,0
2017-02-06T18:44:26.556Z,0
2017-02-06T18:45:39.830Z,0
2017-02-06T18:46:55.566Z,0
2017-02-06T18:48:10.834Z,0
2017-02-06T18:49:23.142Z,0
2017-02-06T18:50:33.460Z,0
2017-02-06T18:51:43.807Z,0
2017-02-06T18:52:54.104Z,0
2017-02-06T18:54:04.412Z,0
2017-02-06T18:55:14.928Z,0
2017-02-06T18:56:25.241Z,0
2017-02-06T18:57:35.157Z,0
2017-02-06T18:58:44.683Z,0
2017-02-06T18:59:54.640Z,0
2017-02-06T19:01:05.255Z,0
2017-02-06T19:02:15.716Z,0
2017-02-06T19:03:25.998Z,0
2017-02-06T19:04:36.481Z,0
2017-02-06T19:05:46.815Z,0
2017-02-06T19:06:57.057Z,0
2017-02-06T19:08:07.387Z,0
2017-02-06T19:09:17.291Z,0
2017-02-06T19:10:27.654Z,0
2017-02-06T19:11:38.026Z,0
2017-02-06T19:12:48.837Z,0
2017-02-06T19:13:59.114Z,0
2017-02-06T19:15:09.619Z,0
2017-02-06T19:16:19.916Z,0
2017-02-06T19:17:29.868Z,0
2017-02-06T19:18:40.625Z,0
2017-02-06T19:19:50.940Z,0
2017-02-06T19:21:00.845Z,0
2017-02-06T19:22:10.366Z,0
2017-02-06T19:23:20.699Z,0
2017-02-06T19:24:31.337Z,0
2017-02-06T19:25:41.608Z,0
2017-02-06T19:26:52.459Z,0
2017-02-06T19:28:02.827Z,0
2017-02-06T19:29:12.686Z,0
2017-02-06T19:30:23.260Z,0
2017-02-06T19:31:33.347Z,0
2017-02-06T19:32:43.662Z,0
2017-02-06T19:33:53.980Z,0
2017-02-06T19:35:03.432Z,0
2017-02-06T19:36:13.996Z,0
2017-02-06T19:37:23.897Z,0
2017-02-06T19:38:34.178Z,0
2017-02-06T19:39:44.365Z,0
2017-02-06T19:40:54.638Z,0
2017-02-06T19:42:05.248Z,0
2017-02-06T19:43:15.639Z,0
2017-02-06T19:44:25.530Z,0
2017-02-06T19:45:35.918Z,0
2017-02-06T19:46:46.209Z,0
2017-02-06T19:47:56.819Z,0
2017-02-06T19:49:07.159Z,0
2017-02-06T19:50:17.456Z,0
2017-02-06T19:51:27.788Z,0
2017-02-06T19:52:37.643Z,0
2017-02-06T19:53:48.534Z,0
2017-02-06T19:54:58.964Z,0
2017-02-06T19:56:08.963Z,0
2017-02-06T19:57:19.374Z,0
2017-02-06T19:58:29.724Z,0
2017-02-06T19:59:39.909Z,0
2017-02-06T20:00:50.244Z,0
2017-02-06T20:02:00.134Z,0
2017-02-06T20:03:10.507Z,0
2017-02-06T20:04:20.899Z,0
2017-02-06T20:05:31.477Z,0
2017-02-06T20:06:41.539Z,0
2017-02-06T20:07:51.907Z,0
2017-02-06T20:09:01.825Z,0
2017-02-06T20:10:11.693Z,0
2017-02-06T20:11:22.280Z,0
2017-02-06T20:12:32.562Z,0
2017-02-06T20:13:42.483Z,0
2017-02-06T20:14:52.462Z,0
2017-02-06T20:16:02.753Z,0
2017-02-06T20:17:13.378Z,0
2017-02-06T20:18:23.743Z,0
2017-02-06T20:19:33.606Z,0
2017-02-06T20:20:43.569Z,0
2017-02-06T20:21:53.055Z,0
2017-02-06T20:23:03.589Z,0
2017-02-06T20:24:13.876Z,0
2017-02-06T20:25:24.263Z,0
2017-02-06T20:26:34.576Z,0
2017-02-06T20:27:44.981Z,0
2017-02-06T20:28:54.989Z,0
2017-02-06T20:30:05.366Z,0
2017-02-06T20:31:15.657Z,0
2017-02-06T20:32:57.314Z,0
2017-02-06T20:34:07.549Z,0
2017-02-06T20:35:17.834Z,0
2017-02-06T20:36:27.742Z,0
2017-02-06T20:37:38.100Z,0
2017-02-06T20:38:48.408Z,0
2017-02-06T20:39:58.666Z,0
2017-02-06T20:41:08.959Z,0
2017-02-06T20:42:19.310Z,0
2017-02-06T20:43:29.418Z,0
2017-02-06T20:44:39.697Z,0
2017-02-06T20:45:49.459Z,0
2017-02-06T20:46:59.780Z,0
2017-02-06T20:48:10.088Z,0
2017-02-06T20:49:51.313Z,0
2017-02-06T20:51:01.930Z,0
2017-02-06T20:52:12.281Z,0
2017-02-06T20:53:22.647Z,0
2017-02-06T20:54:33.018Z,0
2017-02-06T20:55:42.911Z,0
2017-02-06T20:56:52.648Z,0
2017-02-06T20:58:02.950Z,0
2017-02-06T20:59:12.929Z,0
2017-02-06T21:00:22.798Z,0
2017-02-06T21:01:32.723Z,0
2017-02-06T21:02:42.895Z,0
2017-02-06T21:03:53.269Z,0
2017-02-06T21:05:02.781Z,0
2017-02-06T21:06:11.812Z,0
2017-02-06T21:07:22.093Z,0
2017-02-06T21:08:32.652Z,0
2017-02-06T21:09:42.554Z,0
2017-02-06T21:10:52.894Z,0
2017-02-06T21:12:02.800Z,0
2017-02-06T21:13:12.731Z,0
2017-02-06T21:14:22.853Z,0
2017-02-06T21:15:33.193Z,0
2017-02-06T21:16:43.105Z,0
2017-02-06T21:17:52.984Z,0
2017-02-06T21:19:03.267Z,0
2017-02-06T21:20:13.795Z,0
2017-02-06T21:21:23.724Z,0
2017-02-06T21:22:33.637Z,0
2017-02-06T21:23:43.896Z,0
2017-02-06T21:24:53.784Z,0
2017-02-06T21:26:04.409Z,0
2017-02-06T21:27:14.728Z,0
2017-02-06T21:28:25.040Z,0
2017-02-06T21:29:35.487Z,0
2017-02-06T21:30:45.790Z,0
2017-02-06T21:31:55.484Z,0
2017-02-06T21:33:05.860Z,0
2017-02-06T21:34:16.139Z,0
2017-02-06T21:35:26.035Z,0
2017-02-06T21:36:35.479Z,0
2017-02-06T21:37:45.653Z,0
2017-02-06T21:39:19.379Z,0
2017-02-06T21:40:29.268Z,0
2017-02-06T21:41:39.543Z,0
2017-02-06T21:42:49.732Z,0
2017-02-06T21:44:03.356Z,0
2017-02-06T21:45:13.693Z,0
2017-02-06T21:46:23.612Z,0
2017-02-06T21:47:33.498Z,0
2017-02-06T21:48:43.709Z,0
2017-02-06T21:49:54.172Z,0
2017-02-06T21:51:04.451Z,0
2017-02-06T21:52:14.294Z,0
2017-02-06T21:53:23.818Z,0
2017-02-06T21:54:34.368Z,0
2017-02-06T21:55:44.266Z,0
2017-02-06T21:56:54.857Z,0
2017-02-06T21:58:05.155Z,0
2017-02-06T21:59:15.415Z,0
2017-02-06T22:00:25.608Z,0
2017-02-06T22:01:35.923Z,0
2017-02-06T22:02:45.489Z,0
2017-02-06T22:03:54.997Z,0
2017-02-06T22:05:05.262Z,0
2017-02-06T22:06:15.854Z,0
2017-02-06T22:07:26.239Z,0
2017-02-06T22:08:36.640Z,0
2017-02-06T22:09:47.058Z,0
2017-02-06T22:10:56.920Z,0
2017-02-06T22:12:07.047Z,0
2017-02-06T22:13:17.355Z,0
2017-02-06T22:14:26.867Z,0
2017-02-06T22:15:36.752Z,0
2017-02-06T22:16:47.066Z,0
2017-02-06T22:17:57.241Z,0
2017-02-06T22:19:07.105Z,0
2017-02-06T22:20:17.074Z,0
2017-02-06T22:21:27.419Z,0
2017-02-06T22:22:37.288Z,0
2017-02-06T22:23:47.809Z,0
2017-02-06T22:24:57.654Z,0
2017-02-06T22:26:07.976Z,0
2017-02-06T22:27:18.245Z,0
2017-02-06T22:28:28.547Z,0
2017-02-06T22:29:39.095Z,0
2017-02-06T22:30:48.932Z,0
2017-02-06T22:31:58.812Z,0
2017-02-06T22:33:08.277Z,0
2017-02-06T22:34:18.614Z,0
2017-02-06T22:35:29.275Z,0
2017-02-06T22:36:39.144Z,0
2017-02-06T22:37:49.431Z,0
2017-02-06T22:38:59.948Z,0
2017-02-06T22:40:09.822Z,0
2017-02-06T22:41:20.444Z,0
2017-02-06T22:42:30.319Z,0
2017-02-06T22:43:40.172Z,0
2017-02-06T22:44:50.432Z,0
2017-02-06T22:46:00.681Z,0
2017-02-06T22:47:11.228Z,0
2017-02-06T22:48:21.511Z,0
2017-02-06T22:49:30.957Z,0
2017-02-06T22:50:41.293Z,0
2017-02-06T22:51:51.681Z,0
2017-02-06T22:53:02.296Z,0
2017-02-06T22:54:12.664Z,0
2017-02-06T22:55:22.228Z,0
2017-02-06T22:56:32.117Z,0
2017-02-06T22:57:41.563Z,0
2017-02-06T22:58:52.088Z,0
2017-02-06T23:00:02.377Z,0
2017-02-06T23:01:12.655Z,0
2017-02-06T23:02:22.539Z,0
2017-02-06T23:03:32.527Z,0
2017-02-06T23:04:43.165Z,0
2017-02-06T23:05:53.461Z,0
2017-02-06T23:07:03.731Z,0
2017-02-06T23:08:13.594Z,0